Terminal Aerodrome Forecast
Issued by NWS Paducah, KY

Home | Current Version | Previous Version | Text Only | Print | Product List | Glossary On
Versions: 1 2 3 4 5 6 7 8 9 10 11 12 13 14 15 16
000
FTUS43 KPAH 181100
TAFPAH
TAF
KPAH 181125Z 1812/1912 33004KT P6SM FEW250
     FM181500 34010G16KT P6SM SCT040
     FM182300 36004KT P6SM SKC
     FM190800 04002KT 3SM BR SKC=

USA.gov is the U.S. government's official web portal to all federal, state and local government web resources and services.